Time;durP1;ratioP1;P1;durP2;ratioP2;P2;SDS_P1;SDS_P2;PMS_P1;PMS_P2;Temp;Humidity;BMP_temperature;BMP_pressure;BME280_temperature;BME280_humidity;BME280_pressure;Samples;Min_cycle;Max_cycle;Signal;HPM_P1;HPM_P2
2023/01/21 09:24:53;;;;;;;46.17;26.52;;;;;;;10.35;44.65;103139.50;5060149;28;20406;-82
2023/01/21 09:27:19;;;;;;;51.42;27.75;;;;;;;8.10;49.41;103154.19;5071876;28;20032;-81
2023/01/21 09:29:45;;;;;;;51.00;27.92;;;;;;;6.20;54.26;103163.56;5036384;28;20039;-79
2023/01/21 09:32:10;;;;;;;51.53;27.00;;;;;;;4.74;57.80;103160.88;5061537;28;20028;-79
2023/01/21 09:34:36;;;;;;;53.75;27.63;;;;;;;3.69;62.01;103167.88;5063414;28;20036;-79
2023/01/21 09:37:03;;;;;;;55.80;27.95;;;;;;;2.78;64.32;103174.22;5054251;28;20049;-79
2023/01/21 09:39:29;;;;;;;50.72;27.10;;;;;;;2.10;66.99;103177.88;5047969;28;20039;-79
2023/01/21 09:41:55;;;;;;;54.40;26.27;;;;;;;1.68;68.98;103193.16;5062331;28;20464;-78
2023/01/21 09:44:27;;;;;;;59.97;26.58;;;;;;;1.21;71.15;103194.13;5069763;28;20032;-78
2023/01/21 09:47:27;;;;;;;56.95;26.27;;;;;;;0.88;72.17;103197.50;5067385;28;20037;-78
2023/01/21 09:50:01;;;;;;;57.63;26.88;;;;;;;0.52;73.72;103200.72;5068443;28;20116;-79
2023/01/21 09:52:47;;;;;;;55.75;26.70;;;;;;;0.28;75.63;103201.94;5053816;28;20490;-79
2023/01/21 09:55:16;;;;;;;56.78;27.02;;;;;;;0.08;76.35;103211.19;5063554;28;20060;-78
2023/01/21 09:57:53;;;;;;;59.78;27.42;;;;;;;-0.14;77.70;103222.91;5054806;28;20100;-79
2023/01/21 10:00:38;;;;;;;57.08;25.77;;;;;;;-0.34;79.03;103220.81;5062164;28;20037;-78
2023/01/21 10:03:15;;;;;;;60.60;26.55;;;;;;;-0.52;80.61;103229.31;5048263;28;20029;-79
2023/01/21 10:06:08;;;;;;;62.80;26.95;;;;;;;-0.64;82.19;103233.75;5068826;28;20036;-80
2023/01/21 10:08:55;;;;;;;58.72;24.52;;;;;;;-0.71;82.08;103239.38;5065499;28;20127;-80
2023/01/21 10:11:39;;;;;;;64.80;26.63;;;;;;;-0.79;82.76;103245.78;5061825;28;20033;-80
2023/01/21 10:14:29;;;;;;;72.65;29.80;;;;;;;-0.80;83.21;103250.06;5068260;28;20483;-80
2023/01/21 10:17:00;;;;;;;59.55;25.75;;;;;;;-0.84;83.19;103245.50;5066774;28;20029;-80
2023/01/21 10:19:34;;;;;;;59.45;27.55;;;;;;;-0.90;84.60;103243.41;5074362;28;20047;-80
2023/01/21 10:22:29;;;;;;;53.70;24.40;;;;;;;-0.85;85.00;103251.50;5064605;28;20033;-80
2023/01/21 10:25:00;;;;;;;62.80;26.15;;;;;;;-0.83;85.55;103244.69;5045490;28;20560;-80
2023/01/21 10:27:29;;;;;;;63.35;27.45;;;;;;;-0.84;85.85;103250.72;5046736;28;20043;-80
2023/01/21 10:30:01;;;;;;;60.05;26.83;;;;;;;-0.85;86.83;103240.19;5066398;28;20031;-80
2023/01/21 10:32:27;;;;;;;56.67;26.30;;;;;;;-0.82;86.57;103237.78;5050092;28;20047;-80
2023/01/21 10:34:54;;;;;;;57.92;26.92;;;;;;;-0.79;86.96;103232.75;5061726;28;20033;-80
2023/01/21 10:37:34;;;;;;;57.38;26.75;;;;;;;-0.77;87.25;103228.56;5054738;28;20104;-80
2023/01/21 10:40:09;;;;;;;56.83;26.63;;;;;;;-0.62;87.20;103228.63;5054589;28;20040;-81
2023/01/21 10:42:42;;;;;;;56.42;25.35;;;;;;;-0.52;88.04;103230.97;5053370;28;20514;-81
2023/01/21 10:45:26;;;;;;;65.90;28.08;;;;;;;-0.46;88.06;103219.25;5055209;28;20072;-81
2023/01/21 10:48:01;;;;;;;57.45;26.48;;;;;;;-0.33;89.00;103233.03;5039836;28;20152;-80
2023/01/21 10:50:45;;;;;;;65.30;30.02;;;;;;;-0.23;89.42;103231.06;5051676;28;20043;-80
2023/01/21 10:53:26;;;;;;;62.28;28.27;;;;;;;-0.15;89.07;103221.09;5033207;28;20033;-80
2023/01/21 10:56:18;;;;;;;64.07;26.45;;;;;;;-0.02;89.77;103217.56;5030312;28;20506;-79
2023/01/21 10:58:53;;;;;;;60.92;26.27;;;;;;;0.17;90.88;103217.84;5041923;28;20062;-80
2023/01/21 11:01:31;;;;;;;51.40;24.35;;;;;;;0.35;90.45;103207.56;5054792;28;20557;-79
2023/01/21 11:03:59;;;;;;;68.28;27.50;;;;;;;0.50;90.74;103209.28;5049362;28;20036;-80
2023/01/21 11:06:27;;;;;;;57.05;26.08;;;;;;;0.58;90.65;103223.63;5045401;28;20028;-80
2023/01/21 11:08:57;;;;;;;60.25;26.75;;;;;;;0.59;89.70;103228.03;5057391;28;20036;-80
2023/01/21 11:11:31;;;;;;;63.60;28.63;;;;;;;0.55;88.77;103219.16;5045656;28;20041;-80
2023/01/21 11:13:56;;;;;;;68.70;29.15;;;;;;;0.61;89.62;103219.47;5049314;28;20086;-81
2023/01/21 11:16:43;;;;;;;60.25;28.85;;;;;;;0.73;90.97;103218.41;5040242;28;20037;-80
2023/01/21 11:19:15;;;;;;;66.28;29.23;;;;;;;0.86;90.82;103215.66;5040438;28;20542;-80
2023/01/21 11:21:40;;;;;;;;;;;;;;;1.02;87.18;103218.31;5037242;28;20116;-80
2023/01/21 11:24:21;;;;;;;61.75;27.23;;;;;;;1.16;89.08;103213.84;5034437;28;20393;-80
2023/01/21 11:26:53;;;;;;;60.00;27.83;;;;;;;1.28;88.86;103205.78;5048813;28;20029;-80
2023/01/21 11:29:20;;;;;;;64.25;29.15;;;;;;;1.44;89.88;103212.75;5052794;28;20636;-80
2023/01/21 11:31:59;;;;;;;60.35;28.00;;;;;;;1.60;91.54;103207.50;5043695;28;20091;-79
2023/01/21 11:34:24;;;;;;;55.95;28.15;;;;;;;1.74;89.25;103212.56;5048544;28;20037;-80
2023/01/21 11:37:07;;;;;;;65.10;30.80;;;;;;;1.85;89.08;103208.78;5047255;28;20031;-80
2023/01/21 11:39:35;;;;;;;59.63;29.92;;;;;;;1.97;89.71;103205.91;5030477;28;20045;-80
2023/01/21 11:42:13;;;;;;;61.47;29.38;;;;;;;2.13;89.80;103198.06;5046667;28;20017;-80
2023/01/21 11:44:51;;;;;;;61.13;28.70;;;;;;;2.35;90.13;103200.91;5052742;28;20040;-82
2023/01/21 11:47:37;;;;;;;54.10;27.33;;;;;;;2.48;86.97;103198.91;5031402;28;20030;-80
2023/01/21 11:50:11;;;;;;;55.85;27.05;;;;;;;2.58;88.74;103193.31;5046982;28;20071;-80
2023/01/21 11:52:37;;;;;;;54.00;27.65;;;;;;;2.63;88.90;103194.44;5045313;28;20480;-80
2023/01/21 11:55:16;;;;;;;54.08;28.30;;;;;;;2.70;86.69;103191.28;5046100;28;20025;-80
2023/01/21 11:57:41;;;;;;;60.38;30.10;;;;;;;2.86;89.72;103190.28;5038170;28;20071;-79
2023/01/21 12:00:17;;;;;;;56.70;29.08;;;;;;;2.92;89.55;103189.69;5037468;28;20069;-80
2023/01/21 12:02:47;;;;;;;62.38;28.92;;;;;;;3.01;89.40;103188.38;5033738;28;20468;-79
2023/01/21 12:05:26;;;;;;;67.65;30.70;;;;;;;3.28;95.44;103186.97;5040729;28;20073;-80
2023/01/21 12:07:53;;;;;;;64.05;30.67;;;;;;;3.43;93.52;103183.31;5037828;28;20049;-80
2023/01/21 12:10:35;;;;;;;60.28;29.63;;;;;;;3.53;93.00;103188.97;5044286;28;20024;-80
2023/01/21 12:13:13;;;;;;;57.38;28.50;;;;;;;3.64;88.84;103199.13;5042780;28;20065;-80
2023/01/21 12:16:11;;;;;;;58.13;27.33;;;;;;;3.79;89.82;103190.16;5040296;28;20055;-80
2023/01/21 12:18:55;;;;;;;54.40;26.17;;;;;;;3.85;87.25;103188.66;5052934;28;20029;-80
2023/01/21 12:21:29;;;;;;;56.85;27.52;;;;;;;3.90;87.47;103188.88;5053002;28;20118;-80
2023/01/21 12:24:33;;;;;;;53.80;27.02;;;;;;;4.03;85.95;103188.59;5051243;28;20072;-80
2023/01/21 12:27:09;;;;;;;54.67;27.77;;;;;;;4.14;87.08;103188.16;5033881;28;20049;-80
2023/01/21 12:29:37;;;;;;;52.72;25.75;;;;;;;4.26;89.40;103191.28;5043106;28;20175;-80
2023/01/21 12:32:27;;;;;;;49.63;26.33;;;;;;;4.32;88.00;103199.38;5021483;28;20033;-81
2023/01/21 12:34:59;;;;;;;52.63;26.00;;;;;;;4.27;83.85;103188.69;5053153;28;20111;-80
2023/01/21 12:38:08;;;;;;;46.83;24.85;;;;;;;4.42;89.04;103187.56;5039218;28;20119;-80
2023/01/21 12:40:42;;;;;;;53.83;26.88;;;;;;;4.53;90.79;103191.53;5038575;28;20045;-81
2023/01/21 12:43:39;;;;;;;49.65;24.73;;;;;;;4.70;84.63;103187.84;5053324;28;20053;-80
2023/01/21 12:46:14;;;;;;;46.90;25.15;;;;;;;4.69;85.15;103190.41;5053660;28;20078;-80
2023/01/21 12:49:25;;;;;;;48.00;24.73;;;;;;;4.65;84.16;103184.16;5052878;28;20120;-80
2023/01/21 12:51:58;;;;;;;44.50;24.75;;;;;;;4.61;82.60;103190.09;5059778;28;20039;-80
2023/01/21 12:54:47;;;;;;;49.42;25.90;;;;;;;4.56;81.59;103186.41;5048156;28;20044;-80
2023/01/21 12:57:32;;;;;;;53.38;26.65;;;;;;;4.35;81.14;103189.03;5051214;28;20040;-80
2023/01/21 13:00:26;;;;;;;49.42;26.77;;;;;;;4.15;81.11;103182.94;5040109;28;20029;-80
2023/01/21 13:03:03;;;;;;;44.25;24.77;;;;;;;4.01;82.97;103184.13;5031998;28;20052;-80
2023/01/21 13:05:36;;;;;;;46.45;25.15;;;;;;;3.92;82.20;103189.84;5039243;28;20075;-80
2023/01/21 13:08:23;;;;;;;51.28;26.25;;;;;;;3.84;81.64;103181.66;5038146;28;20033;-80
2023/01/21 13:10:58;;;;;;;46.05;24.83;;;;;;;3.76;81.26;103190.91;5041480;28;20033;-80
2023/01/21 13:13:35;;;;;;;45.17;23.45;;;;;;;3.60;79.92;103191.94;5051862;28;20029;-80
2023/01/21 13:16:06;;;;;;;44.13;23.23;;;;;;;3.47;81.59;103186.09;5050876;28;20033;-80
2023/01/21 13:18:37;;;;;;;40.25;22.40;;;;;;;3.34;81.06;103193.41;5049526;28;20040;-80
2023/01/21 13:21:08;;;;;;;;;;;;;;;3.29;80.36;103192.31;5032546;28;20041;-80
2023/01/21 13:23:44;;;;;;;44.30;21.83;;;;;;;3.29;84.89;103188.75;5047858;28;19921;-80
2023/01/21 13:26:09;;;;;;;42.15;22.35;;;;;;;3.45;85.02;103186.03;5052175;28;20112;-81
2023/01/21 13:29:03;;;;;;;47.35;23.83;;;;;;;3.68;89.90;103179.19;5037930;28;20104;-80
2023/01/21 13:31:38;;;;;;;44.00;23.27;;;;;;;3.99;89.00;103188.38;5050770;28;20052;-81
2023/01/21 13:34:28;;;;;;;48.47;22.75;;;;;;;4.28;87.80;103189.63;5047544;28;20025;-81
2023/01/21 13:37:04;;;;;;;39.22;21.77;;;;;;;4.45;86.94;103185.03;5034162;28;20443;-80
2023/01/21 13:39:50;;;;;;;41.28;21.30;;;;;;;4.40;81.45;103182.25;5045471;28;20052;-80
2023/01/21 13:42:38;;;;;;;41.47;20.75;;;;;;;4.39;80.10;103176.94;5054157;28;20037;-80
2023/01/21 13:45:25;;;;;;;43.03;22.20;;;;;;;4.25;81.43;103182.53;5034017;28;20240;-81
2023/01/21 13:48:04;;;;;;;43.33;23.58;;;;;;;4.24;86.86;103177.19;5042356;28;20032;-81
2023/01/21 13:50:47;;;;;;;40.75;22.63;;;;;;;4.49;89.23;103181.72;5042275;28;20086;-80
2023/01/21 13:54:10;;;;;;;46.17;23.40;;;;;;;4.83;88.94;103183.09;5043090;28;20045;-80
2023/01/21 13:56:55;;;;;;;37.72;20.70;;;;;;;4.97;84.41;103184.53;4994199;28;20092;-80
2023/01/21 13:59:33;;;;;;;42.10;22.35;;;;;;;5.14;88.81;103174.63;5008265;28;20041;-80
2023/01/21 14:02:20;;;;;;;42.60;23.23;;;;;;;5.31;88.05;103186.69;5032178;28;20052;-80
2023/01/21 14:04:54;;;;;;;41.35;22.42;;;;;;;5.46;84.32;103175.84;5047501;28;20364;-80
2023/01/21 14:07:32;;;;;;;34.58;19.48;;;;;;;5.43;79.53;103188.00;5035607;28;20049;-81
2023/01/21 14:10:12;;;;;;;35.22;19.40;;;;;;;5.26;78.59;103189.97;5042868;28;20452;-80
2023/01/21 14:12:48;;;;;;;33.78;18.23;;;;;;;5.20;80.90;103195.00;5043283;28;20036;-80
2023/01/21 14:15:46;;;;;;;37.25;20.27;;;;;;;5.16;81.86;103197.50;5054211;28;20079;-80
2023/01/21 14:18:30;;;;;;;31.98;18.08;;;;;;;5.16;76.29;103201.88;5014190;28;20443;-80
2023/01/21 14:21:04;;;;;;;38.78;21.65;;;;;;;5.11;83.69;103204.31;5039001;28;20055;-80
2023/01/21 14:23:48;;;;;;;36.72;20.50;;;;;;;5.11;78.13;103206.94;5041681;28;20133;-80
2023/01/21 14:26:49;;;;;;;29.90;18.23;;;;;;;4.99;76.89;103209.09;5037537;28;20041;-80
2023/01/21 14:29:34;;;;;;;32.60;19.25;;;;;;;4.82;79.97;103205.81;5037692;28;20466;-80
2023/01/21 14:32:15;;;;;;;29.65;16.35;;;;;;;4.79;78.49;103204.78;5042973;28;20045;-80
2023/01/21 14:35:12;;;;;;;32.72;18.50;;;;;;;4.84;80.75;103214.63;5040698;28;20025;-80
2023/01/21 14:37:46;;;;;;;31.00;17.83;;;;;;;4.87;81.55;103209.53;5044573;28;20026;-80
2023/01/21 14:40:27;;;;;;;34.17;18.63;;;;;;;4.89;78.28;103220.97;5046469;28;20044;-81
2023/01/21 14:42:53;;;;;;;30.70;16.73;;;;;;;4.80;75.02;103223.25;5047920;28;20067;-80
2023/01/21 14:45:23;;;;;;;36.22;20.25;;;;;;;4.74;78.82;103220.34;5044668;28;20669;-80
2023/01/21 14:47:51;;;;;;;38.63;21.33;;;;;;;4.81;78.19;103226.75;5033014;28;20128;-80
2023/01/21 14:50:44;;;;;;;29.20;15.38;;;;;;;4.79;77.20;103233.66;5038606;28;20025;-80
2023/01/21 14:53:20;;;;;;;31.23;18.05;;;;;;;4.83;79.11;103233.84;5046905;28;20041;-81
2023/01/21 14:56:05;;;;;;;27.42;17.52;;;;;;;4.80;76.92;103227.56;5026519;28;20041;-80
2023/01/21 14:58:32;;;;;;;40.67;18.65;;;;;;;4.68;73.82;103225.38;5042114;28;20044;-80
2023/01/21 15:00:58;;;;;;;29.25;17.63;;;;;;;4.56;74.68;103222.25;5051992;28;20021;-80
2023/01/21 15:03:27;;;;;;;26.35;15.93;;;;;;;4.50;75.19;103235.97;5003157;28;20048;-80
2023/01/21 15:05:59;;;;;;;30.60;15.85;;;;;;;4.38;74.29;103235.50;5053094;28;20032;-80
2023/01/21 15:08:42;;;;;;;28.85;16.75;;;;;;;4.25;73.95;103237.59;5051938;28;20434;-80
2023/01/21 15:11:19;;;;;;;28.38;16.35;;;;;;;4.07;73.76;103234.19;5044275;28;20133;-80
2023/01/21 15:13:49;;;;;;;29.10;16.35;;;;;;;3.90;72.81;103248.28;5048723;28;20036;-80
2023/01/21 15:16:31;;;;;;;32.15;17.05;;;;;;;3.67;73.18;103251.66;5032878;28;20049;-80
2023/01/21 15:19:08;;;;;;;35.47;18.92;;;;;;;3.52;74.77;103256.22;5039800;28;20040;-81
2023/01/21 15:21:54;;;;;;;32.30;17.25;;;;;;;3.42;75.51;103252.28;5053823;28;20037;-80
2023/01/21 15:24:31;;;;;;;29.85;15.82;;;;;;;3.32;75.04;103255.28;5046133;28;20050;-80
2023/01/21 15:27:18;;;;;;;33.00;18.45;;;;;;;3.23;76.21;103260.09;5049450;28;20037;-81
2023/01/21 15:29:43;;;;;;;32.25;18.23;;;;;;;3.10;75.43;103263.84;5053637;28;20029;-80
2023/01/21 15:32:44;;;;;;;29.02;17.30;;;;;;;2.98;75.83;103260.66;5052174;28;21630;-80
2023/01/21 15:35:31;;;;;;;27.47;16.33;;;;;;;2.86;75.89;103260.94;5052055;28;20033;-80
2023/01/21 15:38:14;;;;;;;27.92;16.75;;;;;;;2.77;76.52;103263.13;5053166;28;20044;-81
2023/01/21 15:40:45;;;;;;;28.77;15.85;;;;;;;2.69;75.97;103267.06;5053258;28;20040;-80
2023/01/21 15:43:24;;;;;;;27.33;15.30;;;;;;;2.56;76.51;103262.97;5053441;28;20032;-80
2023/01/21 15:46:24;;;;;;;26.88;15.40;;;;;;;2.47;75.69;103265.09;5053354;28;20141;-80
2023/01/21 15:49:18;;;;;;;24.67;14.68;;;;;;;2.38;76.58;103267.28;5053105;28;20094;-80
2023/01/21 15:52:14;;;;;;;25.88;15.48;;;;;;;2.27;77.25;103264.97;5041054;28;20026;-80
2023/01/21 15:55:08;;;;;;;28.60;15.73;;;;;;;2.18;77.70;103269.78;5037690;28;20035;-75
2023/01/21 15:57:59;;;;;;;25.95;15.13;;;;;;;2.10;78.34;103273.69;5048979;28;20033;-75
2023/01/21 16:00:29;;;;;;;;;;;;;;;2.07;76.90;103269.19;5040470;28;20164;-76
2023/01/21 16:03:00;;;;;;;28.98;14.18;;;;;;;1.94;77.69;103272.00;5035066;28;19920;-75
2023/01/21 16:05:30;;;;;;;32.03;15.98;;;;;;;1.84;78.13;103270.59;5039256;28;20036;-75
2023/01/21 16:08:20;;;;;;;27.33;15.02;;;;;;;1.77;78.61;103273.72;5038304;28;20098;-75
2023/01/21 16:10:57;;;;;;;29.05;16.98;;;;;;;1.66;78.73;103272.25;5041064;28;20033;-75
2023/01/21 16:13:53;;;;;;;32.42;17.15;;;;;;;1.60;79.04;103262.34;5037605;28;20029;-76
2023/01/21 16:16:37;;;;;;;28.33;16.33;;;;;;;1.58;79.42;103265.69;5038777;28;20033;-75
2023/01/21 16:19:08;;;;;;;31.60;16.30;;;;;;;1.48;79.04;103260.00;5039266;28;20040;-75
2023/01/21 16:21:41;;;;;;;28.08;15.50;;;;;;;1.42;79.63;103259.66;5052466;28;20060;-75
2023/01/21 16:24:15;;;;;;;30.27;17.50;;;;;;;1.36;79.15;103266.25;5052025;28;20054;-76
2023/01/21 16:26:42;;;;;;;28.35;16.13;;;;;;;1.26;79.80;103259.63;5037578;28;20087;-75
2023/01/21 16:29:13;;;;;;;31.85;15.25;;;;;;;1.20;79.89;103272.34;5050651;28;20035;-75
2023/01/21 16:31:58;;;;;;;29.67;17.45;;;;;;;1.11;80.65;103267.50;5052388;28;20037;-76
2023/01/21 16:34:29;;;;;;;29.48;15.75;;;;;;;1.04;80.85;103278.44;5050423;28;20033;-75
2023/01/21 16:36:55;;;;;;;31.65;17.13;;;;;;;0.93;80.63;103276.91;5038502;28;20044;-76
2023/01/21 16:39:22;;;;;;;37.95;19.58;;;;;;;0.82;80.81;103274.59;5050903;28;20044;-76
2023/01/21 16:42:03;;;;;;;38.47;20.88;;;;;;;0.73;81.20;103284.50;5050980;28;20033;-73
2023/01/21 16:44:31;;;;;;;35.50;18.52;;;;;;;0.69;81.47;103294.66;5044210;28;20029;-73
2023/01/21 16:46:57;;;;;;;34.97;19.40;;;;;;;0.62;82.62;103283.00;5044252;28;20021;-74
2023/01/21 16:49:22;;;;;;;49.08;23.23;;;;;;;0.60;83.59;103284.59;5038454;28;20538;-74
2023/01/21 16:51:59;;;;;;;54.35;22.75;;;;;;;0.56;84.78;103286.13;5033152;28;20120;-74
2023/01/21 16:54:29;;;;;;;56.75;25.02;;;;;;;0.52;86.08;103284.16;5047149;28;20045;-74
2023/01/21 16:57:00;;;;;;;55.33;23.90;;;;;;;0.49;86.50;103296.09;5034278;28;20034;-74
2023/01/21 16:59:27;;;;;;;;;;;;;;;0.51;84.22;103289.28;5047389;28;20033;-74
2023/01/21 17:01:54;;;;;;;52.75;23.77;;;;;;;0.40;86.78;103291.25;5032433;28;20295;-74
2023/01/21 17:04:20;;;;;;;54.05;24.35;;;;;;;0.30;88.25;103295.03;5031495;28;20041;-74
2023/01/21 17:06:46;;;;;;;54.03;24.05;;;;;;;0.30;88.89;103299.34;5035291;28;20039;-74
2023/01/21 17:09:24;;;;;;;56.63;24.73;;;;;;;0.26;89.28;103295.63;5033296;28;20059;-75
2023/01/21 17:11:50;;;;;;;52.58;22.85;;;;;;;0.21;88.87;103297.06;5032827;28;20043;-73
2023/01/21 17:14:26;;;;;;;58.63;24.98;;;;;;;0.14;90.46;103289.69;5035532;28;20123;-73
2023/01/21 17:16:55;;;;;;;55.17;23.05;;;;;;;0.07;89.87;103300.56;5055437;28;21584;-73
2023/01/21 17:19:33;;;;;;;59.10;25.63;;;;;;;0.00;90.65;103299.31;5054354;28;20568;-73
2023/01/21 17:22:01;;;;;;;85.60;36.63;;;;;;;-0.02;90.52;103306.13;5061564;28;20033;-73
2023/01/21 17:24:35;;;;;;;87.60;35.95;;;;;;;-0.05;91.31;103306.84;5049821;28;20048;-73
2023/01/21 17:27:10;;;;;;;51.03;21.90;;;;;;;-0.06;91.87;103318.03;5040644;28;20037;-73
2023/01/21 17:29:36;;;;;;;52.42;23.02;;;;;;;-0.10;91.58;103320.34;5031541;28;20026;-74
2023/01/21 17:32:04;;;;;;;54.03;24.83;;;;;;;-0.14;92.43;103315.78;5030312;28;20025;-74
2023/01/21 17:34:33;;;;;;;46.72;21.50;;;;;;;-0.15;92.32;103319.19;5039742;28;20033;-74
2023/01/21 17:36:58;;;;;;;74.47;21.90;;;;;;;-0.26;92.10;103303.78;5044588;28;20024;-74
2023/01/21 17:39:47;;;;;;;49.35;21.38;;;;;;;-0.23;92.81;103319.59;5045180;28;20048;-74
2023/01/21 17:42:18;;;;;;;46.33;19.73;;;;;;;-0.28;92.80;103325.34;5042303;28;20040;-74
2023/01/21 17:44:47;;;;;;;;;;;;;;;-0.27;90.67;103334.97;5032207;28;20395;-74
2023/01/21 17:47:22;;;;;;;42.92;19.17;;;;;;;-0.34;92.15;103333.66;5040307;28;20276;-75
2023/01/21 17:49:55;;;;;;;53.67;20.63;;;;;;;-0.43;93.86;103328.78;5037407;28;20038;-74
2023/01/21 17:52:21;;;;;;;44.65;19.75;;;;;;;-0.46;93.21;103330.28;5035935;28;20488;-75
2023/01/21 17:54:47;;;;;;;49.03;21.23;;;;;;;-0.49;94.10;103338.81;5033717;28;20038;-75
2023/01/21 17:57:33;;;;;;;44.97;21.13;;;;;;;-0.48;94.47;103338.00;5033629;28;20070;-74
2023/01/21 17:59:59;;;;;;;43.35;19.38;;;;;;;-0.52;94.03;103349.03;5035018;28;20472;-74
2023/01/21 18:02:24;;;;;;;58.25;20.23;;;;;;;-0.53;94.09;103344.63;5033747;28;20087;-74
2023/01/21 18:04:50;;;;;;;41.22;19.83;;;;;;;-0.58;95.01;103347.72;5049183;28;20041;-74
2023/01/21 18:07:25;;;;;;;41.47;19.27;;;;;;;-0.58;95.49;103350.34;5046692;28;20055;-74
2023/01/21 18:09:51;;;;;;;43.53;20.77;;;;;;;-0.59;95.21;103343.31;5049800;28;20044;-74
2023/01/21 18:12:18;;;;;;;46.42;19.48;;;;;;;-0.59;94.94;103353.72;5048623;28;20383;-73
2023/01/21 18:14:44;;;;;;;36.30;17.67;;;;;;;-0.62;95.57;103349.22;5043540;28;20260;-73
2023/01/21 18:17:18;;;;;;;43.42;19.40;;;;;;;-0.65;95.89;103349.03;5039720;28;20488;-73
2023/01/21 18:19:44;;;;;;;36.65;18.52;;;;;;;-0.64;95.96;103350.84;5039143;28;20042;-74
2023/01/21 18:22:22;;;;;;;41.45;21.15;;;;;;;-0.66;96.02;103342.94;5034852;28;20029;-73
2023/01/21 18:24:47;;;;;;;43.30;20.80;;;;;;;-0.63;96.00;103349.16;5044180;28;20045;-73
2023/01/21 18:27:13;;;;;;;64.60;28.02;;;;;;;-0.62;96.10;103350.94;5031523;28;20047;-73
2023/01/21 18:29:39;;;;;;;46.00;22.35;;;;;;;-0.68;96.24;103357.53;5041684;28;20531;-73
2023/01/21 18:32:04;;;;;;;39.95;19.08;;;;;;;-0.69;96.15;103352.25;5040773;28;20036;-73
2023/01/21 18:34:30;;;;;;;48.17;21.95;;;;;;;-0.71;96.63;103357.34;5044477;28;20103;-73
2023/01/21 18:36:56;;;;;;;43.90;20.50;;;;;;;-0.69;96.94;103360.06;5037997;28;20029;-73
2023/01/21 18:39:22;;;;;;;48.88;22.33;;;;;;;-0.66;96.87;103360.25;5034535;28;20379;-73
2023/01/21 18:41:47;;;;;;;45.58;21.33;;;;;;;-0.69;96.30;103352.25;5039588;28;20372;-73
2023/01/21 18:44:15;;;;;;;39.55;19.45;;;;;;;-0.70;96.50;103360.84;5034559;28;20842;-73
2023/01/21 18:46:42;;;;;;;47.50;22.65;;;;;;;-0.71;97.31;103361.66;5049234;28;20064;-73
2023/01/21 18:49:15;;;;;;;46.25;22.17;;;;;;;-0.70;96.87;103369.56;5034808;28;20021;-74
2023/01/21 18:51:41;;;;;;;46.15;21.58;;;;;;;-0.72;96.66;103359.84;5034311;28;20079;-73
2023/01/21 18:54:07;;;;;;;47.70;21.75;;;;;;;-0.72;96.68;103370.25;5034829;28;20397;-73
2023/01/21 18:56:34;;;;;;;44.78;20.48;;;;;;;-0.75;96.69;103357.94;5033740;28;20029;-73
2023/01/21 18:58:59;;;;;;;41.95;19.38;;;;;;;-0.75;96.88;103373.56;5032605;28;20033;-73
2023/01/21 19:01:24;;;;;;;43.30;20.27;;;;;;;-0.76;97.32;103373.47;5033943;28;20518;-73
2023/01/21 19:03:53;;;;;;;40.03;18.15;;;;;;;-0.76;97.07;103370.88;5032069;28;20041;-73
2023/01/21 19:06:19;;;;;;;41.15;21.35;;;;;;;-0.77;97.21;103372.56;5040241;28;20045;-73
2023/01/21 19:08:47;;;;;;;44.78;20.17;;;;;;;-0.81;96.74;103367.06;5042504;28;20487;-73
2023/01/21 19:11:13;;;;;;;42.28;20.17;;;;;;;-0.84;97.03;103370.38;5052785;28;20198;-73
2023/01/21 19:13:39;;;;;;;44.78;19.25;;;;;;;-0.87;97.21;103364.94;5041708;28;20013;-73
2023/01/21 19:16:05;;;;;;;36.78;18.77;;;;;;;-0.88;97.52;103369.25;5052342;28;20048;-73
2023/01/21 19:18:30;;;;;;;47.00;20.15;;;;;;;-0.92;96.83;103372.44;5052645;28;20136;-73
2023/01/21 19:20:56;;;;;;;36.67;17.90;;;;;;;-0.98;97.00;103369.47;5053562;28;20116;-73
2023/01/21 19:23:21;;;;;;;36.28;17.73;;;;;;;-1.03;96.89;103369.97;5015838;28;20148;-73
2023/01/21 19:25:51;;;;;;;39.72;18.77;;;;;;;-1.06;97.00;103369.75;5036252;28;20052;-73
2023/01/21 19:28:18;;;;;;;37.95;19.48;;;;;;;-1.06;96.47;103364.53;5045042;28;20033;-73
2023/01/21 19:30:44;;;;;;;33.85;18.08;;;;;;;-1.10;97.19;103366.94;5048469;28;20423;-73
2023/01/21 19:33:10;;;;;;;36.92;18.38;;;;;;;-1.15;97.04;103377.84;5041854;28;20090;-73
2023/01/21 19:35:38;;;;;;;31.40;16.15;;;;;;;-1.19;97.41;103376.72;5037882;28;20041;-73
2023/01/21 19:38:10;;;;;;;37.20;18.60;;;;;;;-1.19;97.63;103373.22;5033134;28;20083;-72
2023/01/21 19:40:36;;;;;;;31.60;16.45;;;;;;;-1.21;96.96;103364.41;5032382;28;20041;-72
2023/01/21 19:43:01;;;;;;;36.65;17.70;;;;;;;-1.24;97.45;103364.22;5031841;28;20029;-72
2023/01/21 19:45:28;;;;;;;44.22;18.38;;;;;;;-1.25;97.47;103370.22;5031695;28;20061;-72
2023/01/21 19:47:54;;;;;;;35.72;17.48;;;;;;;-1.26;97.71;103369.34;5033403;28;20037;-74
2023/01/21 19:50:22;;;;;;;36.53;17.75;;;;;;;-1.28;98.03;103363.13;5041772;28;20526;-72
2023/01/21 19:52:49;;;;;;;36.28;18.38;;;;;;;-1.27;97.86;103366.63;5039208;28;20037;-72
2023/01/21 19:55:18;;;;;;;36.70;19.23;;;;;;;-1.27;98.02;103366.63;5041492;28;20033;-72
2023/01/21 19:57:45;;;;;;;33.95;16.58;;;;;;;-1.26;98.35;103376.22;5031599;28;20421;-73
2023/01/21 20:00:18;;;;;;;33.85;18.15;;;;;;;-1.25;98.02;103372.84;5044315;28;20025;-72
2023/01/21 20:02:43;;;;;;;33.75;16.65;;;;;;;-1.21;97.89;103374.81;5032877;28;20046;-72
2023/01/21 20:05:09;;;;;;;33.83;17.52;;;;;;;-1.19;98.14;103378.44;5049533;28;20104;-72
2023/01/21 20:07:34;;;;;;;37.10;18.45;;;;;;;-1.20;97.74;103376.63;5037719;28;20045;-72
2023/01/21 20:10:00;;;;;;;41.42;21.27;;;;;;;-1.21;97.82;103378.34;5030977;28;20395;-72
2023/01/21 20:12:25;;;;;;;40.05;19.38;;;;;;;-1.21;97.86;103375.75;5047999;28;20037;-72
2023/01/21 20:14:51;;;;;;;40.03;21.30;;;;;;;-1.22;98.44;103376.53;5034815;28;20059;-72
2023/01/21 20:17:16;;;;;;;42.38;19.58;;;;;;;-1.17;98.11;103379.44;5014964;28;20380;-72
2023/01/21 20:19:42;;;;;;;39.85;19.92;;;;;;;-1.18;98.34;103372.44;5032550;28;20041;-72
2023/01/21 20:22:12;;;;;;;40.83;18.80;;;;;;;-1.18;97.66;103377.66;5031037;28;20120;-72
2023/01/21 20:24:37;;;;;;;41.63;20.42;;;;;;;-1.23;97.88;103382.53;5032498;28;20053;-72
2023/01/21 20:27:04;;;;;;;41.45;18.65;;;;;;;-1.26;97.91;103378.81;5032256;28;20041;-72
2023/01/21 20:29:30;;;;;;;35.72;18.85;;;;;;;-1.30;97.73;103376.00;5030800;28;20047;-72
2023/01/21 20:31:55;;;;;;;39.47;20.77;;;;;;;-1.31;98.05;103379.44;5031876;28;20049;-72
2023/01/21 20:34:21;;;;;;;34.65;17.98;;;;;;;-1.30;98.03;103377.72;5030548;28;20026;-72
2023/01/21 20:36:48;;;;;;;40.20;20.63;;;;;;;-1.27;98.10;103371.81;5028587;28;20048;-72
2023/01/21 20:39:14;;;;;;;38.90;20.45;;;;;;;-1.30;97.86;103390.72;5030764;28;20114;-73
2023/01/21 20:41:39;;;;;;;35.28;18.17;;;;;;;-1.35;97.86;103381.72;5041405;28;20061;-72
2023/01/21 20:44:05;;;;;;;36.55;18.55;;;;;;;-1.42;97.52;103379.50;5029463;28;20033;-72
2023/01/21 20:46:32;;;;;;;39.25;20.05;;;;;;;-1.43;98.22;103383.78;5032046;28;20044;-72
2023/01/21 20:48:58;;;;;;;40.33;20.02;;;;;;;-1.47;98.24;103376.56;5037840;28;20025;-72
2023/01/21 20:51:25;;;;;;;41.38;19.45;;;;;;;-1.41;98.43;103386.47;5030408;28;20037;-72
2023/01/21 20:53:50;;;;;;;37.75;17.90;;;;;;;-1.41;98.34;103387.41;5032061;28;20358;-72
2023/01/21 20:56:28;;;;;;;36.80;18.30;;;;;;;-1.44;97.82;103383.69;5031805;28;20033;-72
2023/01/21 20:58:54;;;;;;;42.90;19.27;;;;;;;-1.48;98.08;103385.19;5038862;28;20033;-72
2023/01/21 21:01:21;;;;;;;38.45;19.15;;;;;;;-1.49;97.83;103393.75;5031699;28;20022;-72
2023/01/21 21:03:48;;;;;;;32.28;16.30;;;;;;;-1.53;98.00;103394.38;5021615;28;20057;-72
2023/01/21 21:06:16;;;;;;;38.50;18.30;;;;;;;-1.56;97.77;103397.66;5033453;28;20032;-73
2023/01/21 21:08:42;;;;;;;36.72;16.35;;;;;;;-1.62;97.48;103388.53;5035823;28;20035;-72
2023/01/21 21:11:08;;;;;;;46.28;18.65;;;;;;;-1.65;98.05;103389.22;5043321;28;20021;-72